createdAt,value
2019-02-14T00:01:56.188Z,9.40
2019-02-14T00:04:22.387Z,9.40
2019-02-14T00:06:48.602Z,9.50
2019-02-14T00:09:14.768Z,9.50
2019-02-14T00:11:40.947Z,9.40
2019-02-14T00:14:07.222Z,9.50
2019-02-14T00:16:33.417Z,9.50
2019-02-14T00:18:59.606Z,9.50
2019-02-14T00:21:25.870Z,9.50
2019-02-14T00:23:52.041Z,9.50
2019-02-14T00:26:18.209Z,9.50
2019-02-14T00:28:44.407Z,9.50
2019-02-14T00:31:10.576Z,9.50
2019-02-14T00:33:36.743Z,9.50
2019-02-14T00:36:02.937Z,9.50
2019-02-14T00:38:29.133Z,9.50
2019-02-14T00:40:55.396Z,9.50
2019-02-14T00:43:21.580Z,9.50
2019-02-14T00:45:47.782Z,9.50
2019-02-14T00:48:13.950Z,9.50
2019-02-14T00:50:40.161Z,9.50
2019-02-14T00:53:06.334Z,9.50
2019-02-14T00:55:32.505Z,9.50
2019-02-14T00:57:58.683Z,9.50
2019-02-14T01:00:24.849Z,9.50
2019-02-14T01:02:50.998Z,9.50
2019-02-14T01:05:17.252Z,9.50
2019-02-14T01:07:43.425Z,9.50
2019-02-14T01:10:09.596Z,9.50
2019-02-14T01:12:35.774Z,9.50
2019-02-14T01:15:02.327Z,9.50
2019-02-14T01:17:28.533Z,9.50
2019-02-14T01:19:54.786Z,9.50
2019-02-14T01:22:20.977Z,9.50
2019-02-14T01:24:47.142Z,9.50
2019-02-14T01:27:13.346Z,9.50
2019-02-14T01:29:39.527Z,9.60
2019-02-14T01:32:05.714Z,9.60
2019-02-14T01:34:31.976Z,9.60
2019-02-14T01:36:58.170Z,9.60
2019-02-14T01:39:24.329Z,9.60
2019-02-14T01:41:50.521Z,9.60
2019-02-14T01:44:16.719Z,9.50
2019-02-14T01:46:42.895Z,9.50
2019-02-14T01:49:09.078Z,9.50
2019-02-14T01:51:35.284Z,9.50
2019-02-14T01:54:01.503Z,9.50
2019-02-14T01:56:28.276Z,9.50
2019-02-14T01:58:54.465Z,9.50
2019-02-14T02:01:20.660Z,9.50
2019-02-14T02:03:46.872Z,9.50
2019-02-14T02:06:13.052Z,9.50
2019-02-14T02:08:39.258Z,9.50
2019-02-14T02:11:05.733Z,9.50
2019-02-14T02:13:34.092Z,9.50
2019-02-14T02:16:07.255Z,9.50
2019-02-14T02:18:33.540Z,9.50
2019-02-14T02:21:08.998Z,9.50
2019-02-14T02:23:39.493Z,9.40
2019-02-14T02:26:05.721Z,9.40
2019-02-14T02:28:31.897Z,9.40
2019-02-14T02:30:58.104Z,9.40
2019-02-14T02:33:24.325Z,9.40
2019-02-14T02:35:59.935Z,9.40
2019-02-14T02:38:18.625Z,9.40
2019-02-14T02:40:50.892Z,9.40
2019-02-14T02:43:17.095Z,9.40
2019-02-14T02:45:43.349Z,9.40
2019-02-14T02:48:09.521Z,9.40
2019-02-14T02:50:36.060Z,9.40
2019-02-14T02:53:02.252Z,9.40
2019-02-14T02:55:28.438Z,9.40
2019-02-14T02:57:54.637Z,9.40
2019-02-14T03:00:20.827Z,9.40
2019-02-14T03:02:47.026Z,9.40
2019-02-14T03:05:14.339Z,9.40
2019-02-14T03:07:40.553Z,9.40
2019-02-14T03:10:11.043Z,9.40
2019-02-14T03:12:37.271Z,9.40
2019-02-14T03:15:08.164Z,9.40
2019-02-14T03:17:34.339Z,9.30
2019-02-14T03:20:00.538Z,9.30
2019-02-14T03:22:26.717Z,9.30
2019-02-14T03:24:52.915Z,9.30
2019-02-14T03:27:19.109Z,9.30
2019-02-14T03:29:45.563Z,9.30
2019-02-14T03:32:11.767Z,9.30
2019-02-14T03:34:37.942Z,9.20
2019-02-14T03:37:04.220Z,9.20
2019-02-14T03:39:30.403Z,9.20
2019-02-14T03:41:56.625Z,9.10
2019-02-14T03:44:22.790Z,9.10
2019-02-14T03:46:49.016Z,9.00
2019-02-14T03:49:15.186Z,9.00
2019-02-14T03:51:41.400Z,8.90
2019-02-14T03:54:07.872Z,8.90
2019-02-14T03:56:34.059Z,8.80
2019-02-14T03:59:00.259Z,8.70
2019-02-14T04:01:26.483Z,8.70
2019-02-14T04:03:52.637Z,8.70
2019-02-14T04:06:26.992Z,8.60
2019-02-14T04:08:46.950Z,8.60
2019-02-14T04:11:13.172Z,8.50
2019-02-14T04:13:39.330Z,8.50
2019-02-14T04:16:05.603Z,8.50
2019-02-14T04:18:31.764Z,8.50
2019-02-14T04:20:57.966Z,8.40
2019-02-14T04:23:24.134Z,8.40
2019-02-14T04:25:50.338Z,8.40
2019-02-14T04:28:16.508Z,8.50
2019-02-14T04:30:42.707Z,8.40
2019-02-14T04:33:08.871Z,8.50
2019-02-14T04:35:35.068Z,8.40
2019-02-14T04:38:01.289Z,8.40
2019-02-14T04:40:33.409Z,8.40
2019-02-14T04:42:55.625Z,8.40
2019-02-14T04:45:21.859Z,8.40
2019-02-14T04:47:48.090Z,8.40
2019-02-14T04:50:14.370Z,8.40
2019-02-14T04:52:40.595Z,8.30
2019-02-14T04:55:09.088Z,8.30
2019-02-14T04:57:35.312Z,8.40
2019-02-14T05:00:07.127Z,8.30
2019-02-14T05:02:33.303Z,8.40
2019-02-14T05:04:59.453Z,8.30
2019-02-14T05:07:45.570Z,8.30
2019-02-14T05:10:11.956Z,8.30
2019-02-14T05:12:38.624Z,8.30
2019-02-14T05:15:07.535Z,8.30
2019-02-14T05:17:33.951Z,8.30
2019-02-14T05:20:00.405Z,8.20
2019-02-14T05:22:26.691Z,8.30
2019-02-14T05:24:52.892Z,8.20
2019-02-14T05:27:19.150Z,8.20
2019-02-14T05:29:45.559Z,8.20
2019-02-14T05:32:11.900Z,8.20
2019-02-14T05:34:38.440Z,8.10
2019-02-14T05:37:04.691Z,8.10
2019-02-14T05:39:30.961Z,8.10
2019-02-14T05:41:57.154Z,8.10
2019-02-14T05:44:26.282Z,8.10
2019-02-14T05:46:52.964Z,8.10
2019-02-14T05:49:20.208Z,8.10
2019-02-14T05:51:46.380Z,8.00
2019-02-14T05:54:13.005Z,8.00
2019-02-14T05:56:39.166Z,8.00
2019-02-14T05:59:05.373Z,8.00
2019-02-14T06:01:31.563Z,8.00
2019-02-14T06:03:57.833Z,8.00
2019-02-14T06:06:24.003Z,8.00
2019-02-14T06:08:50.233Z,8.00
2019-02-14T06:11:16.430Z,8.00
2019-02-14T06:13:42.661Z,8.00
2019-02-14T06:16:08.861Z,8.00
2019-02-14T06:18:35.460Z,8.00
2019-02-14T06:21:01.807Z,8.00
2019-02-14T06:23:28.005Z,8.00
2019-02-14T06:25:54.190Z,8.10
2019-02-14T06:28:20.396Z,8.10
2019-02-14T06:30:46.791Z,8.00
2019-02-14T06:33:13.012Z,8.00
2019-02-14T06:35:39.211Z,8.00
2019-02-14T06:38:05.420Z,8.00
2019-02-14T06:40:31.647Z,8.00
2019-02-14T06:42:58.259Z,8.00
2019-02-14T06:45:24.762Z,8.00
2019-02-14T06:47:50.967Z,7.90
2019-02-14T06:50:17.460Z,7.90
2019-02-14T06:52:43.663Z,7.90
2019-02-14T06:55:09.945Z,7.90
2019-02-14T06:57:36.108Z,7.90
2019-02-14T07:00:12.544Z,7.90
2019-02-14T07:02:38.743Z,7.80
2019-02-14T07:05:07.635Z,7.80
2019-02-14T07:07:33.810Z,7.80
2019-02-14T07:10:00.057Z,7.80
2019-02-14T07:12:26.232Z,7.80
2019-02-14T07:14:57.331Z,7.80
2019-02-14T07:17:23.488Z,7.90
2019-02-14T07:19:49.768Z,7.90
2019-02-14T07:22:15.923Z,7.90
2019-02-14T07:24:42.133Z,7.90
2019-02-14T07:27:10.212Z,8.00
2019-02-14T07:29:36.431Z,8.10
2019-02-14T07:32:02.587Z,8.10
2019-02-14T07:34:28.791Z,8.10
2019-02-14T07:36:54.980Z,8.20
2019-02-14T07:39:21.169Z,8.30
2019-02-14T07:41:47.340Z,8.30
2019-02-14T07:44:13.766Z,8.40
2019-02-14T07:46:39.970Z,8.40
2019-02-14T07:49:06.170Z,8.50
2019-02-14T07:51:32.697Z,8.60
2019-02-14T07:53:58.929Z,8.70
2019-02-14T07:56:25.111Z,8.70
2019-02-14T07:58:51.324Z,8.80
2019-02-14T08:01:17.505Z,8.90
2019-02-14T08:03:43.723Z,9.00
2019-02-14T08:06:09.896Z,9.10
2019-02-14T08:08:36.101Z,9.30
2019-02-14T08:11:02.328Z,9.40
2019-02-14T08:13:28.643Z,9.50
2019-02-14T08:15:56.327Z,9.60
2019-02-14T08:18:22.641Z,9.70
2019-02-14T08:20:48.819Z,9.90
2019-02-14T08:23:15.053Z,10.00
2019-02-14T08:25:41.234Z,10.10
2019-02-14T08:28:07.415Z,10.20
2019-02-14T08:30:36.492Z,10.30
2019-02-14T08:33:06.969Z,10.40
2019-02-14T08:35:33.207Z,10.50
2019-02-14T08:37:59.376Z,10.60
2019-02-14T08:40:31.072Z,10.70
2019-02-14T08:42:58.669Z,10.80
2019-02-14T08:45:25.166Z,10.90
2019-02-14T08:47:51.331Z,11.00
2019-02-14T08:50:17.555Z,11.00
2019-02-14T08:52:44.056Z,11.10
2019-02-14T08:55:10.354Z,11.10
2019-02-14T08:57:36.534Z,11.20
2019-02-14T09:00:10.977Z,11.20
2019-02-14T09:02:37.141Z,11.30
2019-02-14T09:05:05.170Z,11.30
2019-02-14T09:07:31.473Z,11.40
2019-02-14T09:09:58.919Z,11.40
2019-02-14T09:12:25.317Z,11.50
2019-02-14T09:14:51.570Z,11.50
2019-02-14T09:17:17.893Z,11.50
2019-02-14T09:19:44.364Z,11.60
2019-02-14T09:22:10.547Z,11.70
2019-02-14T09:24:36.776Z,11.90
2019-02-14T09:27:02.945Z,12.10
2019-02-14T09:29:29.150Z,12.20
2019-02-14T09:31:55.318Z,12.40
2019-02-14T09:34:21.566Z,12.60
2019-02-14T09:36:47.726Z,12.90
2019-02-14T09:39:13.905Z,13.30
2019-02-14T09:41:40.120Z,13.80
2019-02-14T09:44:06.279Z,14.20
2019-02-14T09:46:32.528Z,14.70
2019-02-14T09:48:58.677Z,15.30
2019-02-14T09:51:24.880Z,15.90
2019-02-14T09:53:51.046Z,16.50
2019-02-14T09:56:17.245Z,17.10
2019-02-14T09:58:43.500Z,17.70
2019-02-14T10:01:09.744Z,18.20
2019-02-14T10:03:35.905Z,18.70
2019-02-14T10:06:02.106Z,19.10
2019-02-14T10:08:28.292Z,19.40
2019-02-14T10:10:54.860Z,19.70
2019-02-14T10:13:21.032Z,20.10
2019-02-14T10:15:47.259Z,20.30
2019-02-14T10:18:13.770Z,20.40
2019-02-14T10:20:39.982Z,20.70
2019-02-14T10:23:06.144Z,20.90
2019-02-14T10:25:32.361Z,21.00
2019-02-14T10:27:58.644Z,21.20
2019-02-14T10:30:24.844Z,21.40
2019-02-14T10:32:51.003Z,21.60
2019-02-14T10:35:19.531Z,21.80
2019-02-14T10:37:45.721Z,21.90
2019-02-14T10:40:17.015Z,22.00
2019-02-14T10:42:43.188Z,22.20
2019-02-14T10:45:18.726Z,22.30
2019-02-14T10:47:45.049Z,22.40
2019-02-14T10:50:11.244Z,22.50
2019-02-14T10:52:37.436Z,22.60
2019-02-14T10:55:08.333Z,22.80
2019-02-14T10:57:34.547Z,22.90
2019-02-14T11:00:00.922Z,23.10
2019-02-14T11:02:27.136Z,23.30
2019-02-14T11:04:53.595Z,23.40
2019-02-14T11:07:19.964Z,23.50
2019-02-14T11:09:46.270Z,23.70
2019-02-14T11:12:12.571Z,23.80
2019-02-14T11:14:38.735Z,23.90
2019-02-14T11:17:05.279Z,24.00
2019-02-14T11:19:31.805Z,24.20
2019-02-14T11:21:58.018Z,24.20
2019-02-14T11:24:24.242Z,24.40
2019-02-14T11:26:50.436Z,24.50
2019-02-14T11:29:16.605Z,24.60
2019-02-14T11:31:43.202Z,24.70
2019-02-14T11:34:09.373Z,24.80
2019-02-14T11:36:35.584Z,25.00
2019-02-14T11:39:04.304Z,25.00
2019-02-14T11:41:30.530Z,25.10
2019-02-14T11:43:57.037Z,25.20
2019-02-14T11:46:23.232Z,25.40
2019-02-14T11:48:49.680Z,25.50
2019-02-14T11:51:15.959Z,25.60
2019-02-14T11:53:42.124Z,25.70
2019-02-14T11:56:09.994Z,25.80
2019-02-14T11:58:36.295Z,26.00
2019-02-14T12:01:02.633Z,26.10
2019-02-14T12:03:28.883Z,26.10
2019-02-14T12:05:55.074Z,26.20
2019-02-14T12:08:21.239Z,26.20
2019-02-14T12:10:47.561Z,26.20
2019-02-14T12:13:13.751Z,26.10
2019-02-14T12:15:40.014Z,26.10
2019-02-14T12:18:06.242Z,25.90
2019-02-14T12:20:32.477Z,25.80
2019-02-14T12:22:58.644Z,25.60
2019-02-14T12:25:30.748Z,25.30
2019-02-14T12:27:56.982Z,25.10
2019-02-14T12:30:23.196Z,24.90
2019-02-14T12:32:49.717Z,24.80
2019-02-14T12:35:16.047Z,24.70
2019-02-14T12:37:42.220Z,24.70
2019-02-14T12:40:11.271Z,24.60
2019-02-14T12:42:37.441Z,24.70
2019-02-14T12:45:20.092Z,24.70
2019-02-14T12:47:39.732Z,24.60
2019-02-14T12:50:08.137Z,24.60
2019-02-14T12:52:34.314Z,24.60
2019-02-14T12:55:00.490Z,24.60
2019-02-14T12:57:26.760Z,24.50
2019-02-14T12:59:52.948Z,24.60
2019-02-14T13:02:19.550Z,24.60
2019-02-14T13:04:45.772Z,24.50
2019-02-14T13:07:23.548Z,24.40
2019-02-14T13:09:49.746Z,24.30
2019-02-14T13:12:15.976Z,24.20
2019-02-14T13:14:42.150Z,24.10
2019-02-14T13:17:08.426Z,24.00
2019-02-14T13:19:34.609Z,24.00
2019-02-14T13:22:00.803Z,23.90
2019-02-14T13:24:28.013Z,23.90
2019-02-14T13:26:55.361Z,23.70
2019-02-14T13:29:21.895Z,23.60
2019-02-14T13:31:48.111Z,23.50
2019-02-14T13:34:14.279Z,23.40
2019-02-14T13:36:40.496Z,23.30
2019-02-14T13:39:06.877Z,23.30
2019-02-14T13:41:33.125Z,23.30
2019-02-14T13:43:59.386Z,23.30
2019-02-14T13:46:25.611Z,23.30
2019-02-14T13:48:52.099Z,23.30
2019-02-14T13:51:18.450Z,23.20
2019-02-14T13:53:44.676Z,23.20
2019-02-14T13:56:10.904Z,23.10
2019-02-14T13:58:37.579Z,23.00
2019-02-14T14:01:03.783Z,22.80
2019-02-14T14:03:30.292Z,22.70
2019-02-14T14:05:56.493Z,22.60
2019-02-14T14:08:22.692Z,22.50
2019-02-14T14:10:48.950Z,22.30
2019-02-14T14:13:15.170Z,22.30
2019-02-14T14:15:41.398Z,22.10
2019-02-14T14:18:07.597Z,22.00
2019-02-14T14:20:33.790Z,21.90
2019-02-14T14:23:01.437Z,21.70
2019-02-14T14:25:27.634Z,21.60
2019-02-14T14:27:53.875Z,21.40
2019-02-14T14:30:20.105Z,21.30
2019-02-14T14:32:46.323Z,21.20
2019-02-14T14:35:12.675Z,21.10
2019-02-14T14:37:39.598Z,21.00
2019-02-14T14:40:11.000Z,20.90
2019-02-14T14:42:39.209Z,20.80
2019-02-14T14:45:10.284Z,20.70
2019-02-14T14:47:36.569Z,20.60
2019-02-14T14:50:05.981Z,20.50
2019-02-14T14:52:32.217Z,20.40
2019-02-14T14:54:58.447Z,20.20
2019-02-14T14:57:24.763Z,20.10
2019-02-14T14:59:50.898Z,19.90
2019-02-14T15:02:17.188Z,19.80
2019-02-14T15:04:43.454Z,19.70
2019-02-14T15:07:09.774Z,19.50
2019-02-14T15:09:36.244Z,19.40
2019-02-14T15:12:02.488Z,19.20
2019-02-14T15:14:28.888Z,19.00
2019-02-14T15:16:55.079Z,18.90
2019-02-14T15:19:21.286Z,18.70
2019-02-14T15:21:47.506Z,18.50
2019-02-14T15:24:13.663Z,18.40
2019-02-14T15:26:39.892Z,18.20
2019-02-14T15:29:06.176Z,18.10
2019-02-14T15:31:32.350Z,17.90
2019-02-14T15:33:58.977Z,17.80
2019-02-14T15:36:28.126Z,17.60
2019-02-14T15:38:53.315Z,17.50
2019-02-14T15:41:19.536Z,17.30
2019-02-14T15:43:45.734Z,17.20
2019-02-14T15:46:11.954Z,17.00
2019-02-14T15:48:38.190Z,16.90
2019-02-14T15:51:09.587Z,16.70
2019-02-14T16:00:59.465Z,16.10
2019-02-14T16:03:25.697Z,15.90
2019-02-14T16:05:51.945Z,15.70
2019-02-14T16:13:15.142Z,15.20
2019-02-14T16:15:41.717Z,15.00
2019-02-14T16:18:07.940Z,14.90
2019-02-14T16:20:34.133Z,14.70
2019-02-14T16:23:00.362Z,14.60
2019-02-14T16:25:28.210Z,14.40
2019-02-14T16:27:54.645Z,14.30
2019-02-14T16:30:20.840Z,14.20
2019-02-14T16:32:47.048Z,14.10
2019-02-14T16:35:13.297Z,14.00
2019-02-14T16:37:39.455Z,13.90
2019-02-14T16:40:08.260Z,13.80
2019-02-14T16:42:34.466Z,13.60
2019-02-14T16:45:00.646Z,13.60
2019-02-14T16:47:26.852Z,13.50
2019-02-14T16:49:53.066Z,13.40
2019-02-14T16:52:19.227Z,13.30
2019-02-14T16:54:45.506Z,13.20
2019-02-14T16:57:11.806Z,13.10
2019-02-14T16:59:38.061Z,13.00
2019-02-14T17:02:04.272Z,12.90
2019-02-14T17:04:30.544Z,12.80
2019-02-14T17:06:56.707Z,12.70
2019-02-14T17:09:24.984Z,12.60
2019-02-14T17:11:53.118Z,12.60
2019-02-14T17:14:19.348Z,12.50
2019-02-14T17:16:45.808Z,12.40
2019-02-14T17:19:12.012Z,12.30
2019-02-14T17:21:38.593Z,12.20
2019-02-14T17:24:05.917Z,12.10
2019-02-14T17:26:32.122Z,12.00
2019-02-14T17:28:58.390Z,11.90
2019-02-14T17:31:24.605Z,11.80
2019-02-14T17:33:51.215Z,11.70
2019-02-14T17:36:17.399Z,11.60
2019-02-14T17:38:43.614Z,11.60
2019-02-14T17:41:09.811Z,11.50
2019-02-14T17:43:40.373Z,11.40
2019-02-14T17:46:06.929Z,11.30
2019-02-14T17:48:33.561Z,11.20
2019-02-14T17:50:59.846Z,11.20
2019-02-14T17:53:26.069Z,11.10
2019-02-14T17:55:52.261Z,11.00
2019-02-14T17:58:24.385Z,11.00
2019-02-14T18:00:50.561Z,10.90
2019-02-14T18:03:16.902Z,10.80
2019-02-14T18:05:43.061Z,10.80
2019-02-14T18:08:09.706Z,10.70
2019-02-14T18:10:36.422Z,10.70
2019-02-14T18:13:03.020Z,10.60
2019-02-14T18:15:29.537Z,10.50
2019-02-14T18:18:15.925Z,10.50
2019-02-14T18:20:43.278Z,10.40
2019-02-14T18:23:09.617Z,10.30
2019-02-14T18:25:35.767Z,10.30
2019-02-14T18:28:02.451Z,10.30
2019-02-14T18:30:28.857Z,10.20
2019-02-14T18:32:55.277Z,10.10
2019-02-14T18:35:21.620Z,10.10
2019-02-14T18:37:48.171Z,10.00
2019-02-14T18:40:14.514Z,10.00
2019-02-14T18:42:47.861Z,10.00
2019-02-14T18:45:14.109Z,10.00
2019-02-14T18:47:40.547Z,9.90
2019-02-14T18:50:11.018Z,9.90
2019-02-14T18:52:37.505Z,9.80
2019-02-14T18:55:09.563Z,9.80
2019-02-14T18:57:36.751Z,9.80
2019-02-14T19:00:15.443Z,9.80
2019-02-14T19:02:42.086Z,9.80
2019-02-14T19:05:11.440Z,9.70
2019-02-14T19:07:37.663Z,9.70
2019-02-14T19:10:14.555Z,9.60
2019-02-14T19:12:40.923Z,9.60
2019-02-14T19:15:10.490Z,9.60
2019-02-14T19:17:36.938Z,9.50
2019-02-14T19:20:07.456Z,9.50
2019-02-14T19:22:33.650Z,9.40
2019-02-14T19:24:59.837Z,9.40
2019-02-14T19:27:26.084Z,9.30
2019-02-14T19:29:52.983Z,9.30
2019-02-14T19:32:19.179Z,9.20
2019-02-14T19:34:45.429Z,9.20
2019-02-14T19:37:11.667Z,9.10
2019-02-14T19:39:37.908Z,9.10
2019-02-14T19:42:04.229Z,9.00
2019-02-14T19:44:30.555Z,9.00
2019-02-14T19:46:56.820Z,8.90
2019-02-14T19:49:23.747Z,8.90
2019-02-14T19:51:50.013Z,8.90
2019-02-14T19:54:16.240Z,8.90
2019-02-14T19:56:42.511Z,8.80
2019-02-14T19:59:11.116Z,8.90
2019-02-14T20:01:37.274Z,8.80
2019-02-14T20:04:03.506Z,8.80
2019-02-14T20:06:33.350Z,8.80
2019-02-14T20:08:59.662Z,8.80
2019-02-14T20:11:35.904Z,8.70
2019-02-14T20:13:54.043Z,8.70
2019-02-14T20:16:20.605Z,8.70
2019-02-14T20:18:47.944Z,8.70
2019-02-14T20:21:14.440Z,8.70
2019-02-14T20:23:40.773Z,8.70
2019-02-14T20:26:06.976Z,8.60
2019-02-14T20:28:33.502Z,8.60
2019-02-14T20:30:59.750Z,8.60
2019-02-14T20:33:26.134Z,8.50
2019-02-14T20:35:52.335Z,8.50
2019-02-14T20:38:18.732Z,8.40
2019-02-14T20:40:45.256Z,8.40
2019-02-14T20:43:11.552Z,8.40
2019-02-14T20:45:37.837Z,8.30
2019-02-14T20:48:04.300Z,8.30
2019-02-14T20:50:30.516Z,8.30
2019-02-14T20:52:56.842Z,8.20
2019-02-14T20:55:24.552Z,8.20
2019-02-14T20:57:51.746Z,8.20
2019-02-14T21:00:19.884Z,8.10
2019-02-14T21:02:46.162Z,8.10
2019-02-14T21:05:12.502Z,8.10
2019-02-14T21:07:38.670Z,8.00
2019-02-14T21:10:06.126Z,8.00
2019-02-14T21:12:32.345Z,7.90
2019-02-14T21:14:58.565Z,7.90
2019-02-14T21:17:24.752Z,7.90
2019-02-14T21:19:51.724Z,7.80
2019-02-14T21:22:18.868Z,7.80
2019-02-14T21:24:45.545Z,7.70
2019-02-14T21:27:11.748Z,7.70
2019-02-14T21:29:38.203Z,7.70
2019-02-14T21:32:05.280Z,7.60
2019-02-14T21:34:31.525Z,7.60
2019-02-14T21:36:57.702Z,7.50
2019-02-14T21:39:23.925Z,7.50
2019-02-14T21:41:50.204Z,7.40
2019-02-14T21:44:16.523Z,7.40
2019-02-14T21:46:45.006Z,7.30
2019-02-14T21:49:11.204Z,7.30
2019-02-14T21:51:37.397Z,7.30
2019-02-14T21:54:03.616Z,7.20
2019-02-14T21:56:29.798Z,7.20
2019-02-14T21:58:56.091Z,7.10
2019-02-14T22:01:24.311Z,7.10
2019-02-14T22:03:50.552Z,7.00
2019-02-14T22:06:16.956Z,7.00
2019-02-14T22:08:43.202Z,6.90
2019-02-14T22:11:09.393Z,6.90
2019-02-14T22:13:35.600Z,6.80
2019-02-14T22:16:01.866Z,6.80
2019-02-14T22:18:28.280Z,6.70
2019-02-14T22:20:54.537Z,6.70
2019-02-14T22:23:20.764Z,6.60
2019-02-14T22:25:47.102Z,6.60
2019-02-14T22:28:13.560Z,6.60
2019-02-14T22:30:40.898Z,6.50
2019-02-14T22:33:07.250Z,6.50
2019-02-14T22:35:33.452Z,6.40
2019-02-14T22:37:59.615Z,6.40
2019-02-14T22:40:25.880Z,6.30
2019-02-14T22:42:52.060Z,6.30
2019-02-14T22:45:18.308Z,6.20
2019-02-14T22:47:44.585Z,6.20
2019-02-14T22:50:11.926Z,6.20
2019-02-14T22:52:38.113Z,6.10
2019-02-14T22:55:11.529Z,6.10
2019-02-14T22:57:38.974Z,6.10
2019-02-14T23:00:27.054Z,6.00
2019-02-14T23:02:53.256Z,6.00
2019-02-14T23:05:19.465Z,5.90
2019-02-14T23:07:45.630Z,5.90
2019-02-14T23:10:11.868Z,5.80
2019-02-14T23:12:38.111Z,5.80
2019-02-14T23:15:06.356Z,5.80
2019-02-14T23:17:32.590Z,5.70
2019-02-14T23:19:58.803Z,5.70
2019-02-14T23:22:25.075Z,5.60
2019-02-14T23:24:51.257Z,5.60
2019-02-14T23:27:17.465Z,5.50
2019-02-14T23:29:44.144Z,5.50
2019-02-14T23:32:10.398Z,5.40
2019-02-14T23:34:36.579Z,5.40
2019-02-14T23:37:02.838Z,5.40
2019-02-14T23:39:29.012Z,5.30
2019-02-14T23:41:55.204Z,5.30
2019-02-14T23:44:21.455Z,5.30
2019-02-14T23:46:47.697Z,5.20
2019-02-14T23:49:13.860Z,5.20
2019-02-14T23:51:40.433Z,5.20
2019-02-14T23:54:06.994Z,5.10
2019-02-14T23:56:33.232Z,5.10
2019-02-14T23:58:59.387Z,5.10
